sensor_id;sensor_type;location;lat;lon;timestamp;P1;durP1;ratioP1;P2;durP2;ratioP2
6955;SDS011;50345;51.136;16.886;2023-02-18T00:00:59;2.22;;;1.60;;
6955;SDS011;50345;51.136;16.886;2023-02-18T00:03:25;3.67;;;1.70;;
6955;SDS011;50345;51.136;16.886;2023-02-18T00:05:52;1.60;;;1.20;;
6955;SDS011;50345;51.136;16.886;2023-02-18T00:08:18;2.60;;;1.10;;
6955;SDS011;50345;51.136;16.886;2023-02-18T00:10:45;2.33;;;0.90;;
6955;SDS011;50345;51.136;16.886;2023-02-18T00:13:10;1.43;;;1.00;;
6955;SDS011;50345;51.136;16.886;2023-02-18T00:15:36;2.90;;;1.10;;
6955;SDS011;50345;51.136;16.886;2023-02-18T00:18:03;1.65;;;1.08;;
6955;SDS011;50345;51.136;16.886;2023-02-18T00:20:29;2.60;;;1.15;;
6955;SDS011;50345;51.136;16.886;2023-02-18T00:22:57;4.22;;;1.45;;
6955;SDS011;50345;51.136;16.886;2023-02-18T00:25:23;6.60;;;4.23;;
6955;SDS011;50345;51.136;16.886;2023-02-18T00:27:48;2.07;;;1.33;;
6955;SDS011;50345;51.136;16.886;2023-02-18T00:30:14;5.63;;;1.10;;
6955;SDS011;50345;51.136;16.886;2023-02-18T00:32:40;0.80;;;0.80;;
6955;SDS011;50345;51.136;16.886;2023-02-18T00:35:05;1.10;;;1.00;;
6955;SDS011;50345;51.136;16.886;2023-02-18T00:37:31;0.87;;;0.80;;
6955;SDS011;50345;51.136;16.886;2023-02-18T00:39:57;2.60;;;1.20;;
6955;SDS011;50345;51.136;16.886;2023-02-18T00:42:22;1.43;;;0.90;;
6955;SDS011;50345;51.136;16.886;2023-02-18T00:44:48;3.17;;;1.20;;
6955;SDS011;50345;51.136;16.886;2023-02-18T00:47:13;1.53;;;0.90;;
6955;SDS011;50345;51.136;16.886;2023-02-18T00:49:39;1.23;;;1.07;;
6955;SDS011;50345;51.136;16.886;2023-02-18T00:52:04;3.00;;;1.50;;
6955;SDS011;50345;51.136;16.886;2023-02-18T00:54:30;0.83;;;0.83;;
6955;SDS011;50345;51.136;16.886;2023-02-18T00:56:55;3.20;;;1.00;;
6955;SDS011;50345;51.136;16.886;2023-02-18T00:59:21;2.70;;;1.00;;
6955;SDS011;50345;51.136;16.886;2023-02-18T01:01:47;1.10;;;0.90;;
6955;SDS011;50345;51.136;16.886;2023-02-18T01:04:12;2.37;;;0.80;;
6955;SDS011;50345;51.136;16.886;2023-02-18T01:06:38;1.10;;;1.00;;
6955;SDS011;50345;51.136;16.886;2023-02-18T01:09:04;2.10;;;1.35;;
6955;SDS011;50345;51.136;16.886;2023-02-18T01:11:30;2.25;;;1.10;;
6955;SDS011;50345;51.136;16.886;2023-02-18T01:13:56;0.67;;;0.67;;
6955;SDS011;50345;51.136;16.886;2023-02-18T01:16:22;3.43;;;1.30;;
6955;SDS011;50345;51.136;16.886;2023-02-18T01:18:47;1.70;;;1.00;;
6955;SDS011;50345;51.136;16.886;2023-02-18T01:21:13;2.67;;;1.20;;
6955;SDS011;50345;51.136;16.886;2023-02-18T01:23:39;2.38;;;1.27;;
6955;SDS011;50345;51.136;16.886;2023-02-18T01:26:05;1.10;;;1.00;;
6955;SDS011;50345;51.136;16.886;2023-02-18T01:28:32;1.80;;;1.00;;
6955;SDS011;50345;51.136;16.886;2023-02-18T01:30:57;9.83;;;1.53;;
6955;SDS011;50345;51.136;16.886;2023-02-18T01:33:28;3.00;;;1.00;;
6955;SDS011;50345;51.136;16.886;2023-02-18T01:35:53;2.90;;;1.20;;
6955;SDS011;50345;51.136;16.886;2023-02-18T01:38:19;2.33;;;1.37;;
6955;SDS011;50345;51.136;16.886;2023-02-18T01:40:46;1.30;;;1.20;;
6955;SDS011;50345;51.136;16.886;2023-02-18T01:43:15;1.40;;;1.05;;
6955;SDS011;50345;51.136;16.886;2023-02-18T01:45:47;3.67;;;1.20;;
6955;SDS011;50345;51.136;16.886;2023-02-18T01:48:20;2.08;;;1.00;;
6955;SDS011;50345;51.136;16.886;2023-02-18T01:51:13;4.15;;;1.40;;
6955;SDS011;50345;51.136;16.886;2023-02-18T01:53:46;3.08;;;1.60;;
6955;SDS011;50345;51.136;16.886;2023-02-18T01:56:27;1.15;;;1.05;;
6955;SDS011;50345;51.136;16.886;2023-02-18T01:58:56;2.22;;;1.48;;
6955;SDS011;50345;51.136;16.886;2023-02-18T02:01:25;3.28;;;1.60;;
6955;SDS011;50345;51.136;16.886;2023-02-18T02:03:51;1.92;;;1.08;;
6955;SDS011;50345;51.136;16.886;2023-02-18T02:06:18;1.63;;;1.20;;
6955;SDS011;50345;51.136;16.886;2023-02-18T02:08:46;3.30;;;1.02;;
6955;SDS011;50345;51.136;16.886;2023-02-18T02:16:42;1.50;;;0.95;;
6955;SDS011;50345;51.136;16.886;2023-02-18T02:19:25;4.57;;;1.17;;
6955;SDS011;50345;51.136;16.886;2023-02-18T02:27:25;1.95;;;1.70;;
6955;SDS011;50345;51.136;16.886;2023-02-18T02:33:10;3.05;;;1.90;;
6955;SDS011;50345;51.136;16.886;2023-02-18T02:36:12;3.10;;;1.70;;
6955;SDS011;50345;51.136;16.886;2023-02-18T02:38:55;2.45;;;1.63;;
6955;SDS011;50345;51.136;16.886;2023-02-18T02:46:47;3.30;;;1.45;;
6955;SDS011;50345;51.136;16.886;2023-02-18T02:49:19;3.20;;;1.10;;
6955;SDS011;50345;51.136;16.886;2023-02-18T02:51:59;2.45;;;1.27;;
6955;SDS011;50345;51.136;16.886;2023-02-18T02:54:29;2.33;;;1.20;;
6955;SDS011;50345;51.136;16.886;2023-02-18T02:59:36;3.13;;;1.42;;
6955;SDS011;50345;51.136;16.886;2023-02-18T03:02:08;2.83;;;1.33;;
6955;SDS011;50345;51.136;16.886;2023-02-18T03:05:07;2.38;;;1.08;;
6955;SDS011;50345;51.136;16.886;2023-02-18T03:07:54;1.67;;;0.90;;
6955;SDS011;50345;51.136;16.886;2023-02-18T03:10:45;3.50;;;1.20;;
6955;SDS011;50345;51.136;16.886;2023-02-18T03:13:17;2.35;;;1.00;;
6955;SDS011;50345;51.136;16.886;2023-02-18T03:16:08;1.67;;;1.17;;
6955;SDS011;50345;51.136;16.886;2023-02-18T03:18:39;2.22;;;1.27;;
6955;SDS011;50345;51.136;16.886;2023-02-18T03:21:25;1.77;;;1.27;;
6955;SDS011;50345;51.136;16.886;2023-02-18T03:26:26;4.75;;;1.13;;
6955;SDS011;50345;51.136;16.886;2023-02-18T03:28:57;1.45;;;1.23;;
6955;SDS011;50345;51.136;16.886;2023-02-18T03:31:26;0.95;;;0.82;;
6955;SDS011;50345;51.136;16.886;2023-02-18T03:33:58;2.17;;;1.45;;
6955;SDS011;50345;51.136;16.886;2023-02-18T03:36:27;1.90;;;1.05;;
6955;SDS011;50345;51.136;16.886;2023-02-18T03:38:55;1.40;;;0.95;;
6955;SDS011;50345;51.136;16.886;2023-02-18T03:41:25;1.10;;;0.90;;
6955;SDS011;50345;51.136;16.886;2023-02-18T03:43:57;3.17;;;1.30;;
6955;SDS011;50345;51.136;16.886;2023-02-18T03:46:25;3.10;;;1.00;;
6955;SDS011;50345;51.136;16.886;2023-02-18T03:48:52;1.20;;;1.10;;
6955;SDS011;50345;51.136;16.886;2023-02-18T03:51:18;2.30;;;1.30;;
6955;SDS011;50345;51.136;16.886;2023-02-18T03:53:44;4.25;;;1.40;;
6955;SDS011;50345;51.136;16.886;2023-02-18T03:56:10;3.17;;;1.08;;
6955;SDS011;50345;51.136;16.886;2023-02-18T03:58:35;3.20;;;1.07;;
6955;SDS011;50345;51.136;16.886;2023-02-18T04:01:01;2.73;;;1.10;;
6955;SDS011;50345;51.136;16.886;2023-02-18T04:03:27;0.80;;;0.80;;
6955;SDS011;50345;51.136;16.886;2023-02-18T04:05:52;9.73;;;1.53;;
6955;SDS011;50345;51.136;16.886;2023-02-18T04:08:18;1.77;;;1.17;;
6955;SDS011;50345;51.136;16.886;2023-02-18T04:10:43;4.30;;;0.90;;
6955;SDS011;50345;51.136;16.886;2023-02-18T04:13:09;4.20;;;2.40;;
6955;SDS011;50345;51.136;16.886;2023-02-18T04:15:34;1.87;;;0.90;;
6955;SDS011;50345;51.136;16.886;2023-02-18T04:18:00;1.30;;;0.90;;
6955;SDS011;50345;51.136;16.886;2023-02-18T04:20:26;4.63;;;1.77;;
6955;SDS011;50345;51.136;16.886;2023-02-18T04:22:52;2.40;;;1.00;;
6955;SDS011;50345;51.136;16.886;2023-02-18T04:25:17;2.10;;;1.03;;
6955;SDS011;50345;51.136;16.886;2023-02-18T04:27:43;2.90;;;2.10;;
6955;SDS011;50345;51.136;16.886;2023-02-18T04:30:09;2.10;;;0.90;;
6955;SDS011;50345;51.136;16.886;2023-02-18T04:32:35;2.22;;;1.13;;
6955;SDS011;50345;51.136;16.886;2023-02-18T04:35:00;3.20;;;0.93;;
6955;SDS011;50345;51.136;16.886;2023-02-18T04:37:26;3.60;;;1.60;;
6955;SDS011;50345;51.136;16.886;2023-02-18T04:39:52;4.73;;;1.00;;
6955;SDS011;50345;51.136;16.886;2023-02-18T04:42:17;1.67;;;0.97;;
6955;SDS011;50345;51.136;16.886;2023-02-18T04:44:43;1.80;;;1.00;;
6955;SDS011;50345;51.136;16.886;2023-02-18T04:47:09;2.50;;;1.63;;
6955;SDS011;50345;51.136;16.886;2023-02-18T04:49:34;2.80;;;1.37;;
6955;SDS011;50345;51.136;16.886;2023-02-18T04:52:00;4.80;;;1.40;;
6955;SDS011;50345;51.136;16.886;2023-02-18T04:54:26;3.15;;;1.23;;
6955;SDS011;50345;51.136;16.886;2023-02-18T04:56:52;3.83;;;1.30;;
6955;SDS011;50345;51.136;16.886;2023-02-18T04:59:17;1.63;;;1.07;;
6955;SDS011;50345;51.136;16.886;2023-02-18T05:01:43;2.23;;;1.00;;
6955;SDS011;50345;51.136;16.886;2023-02-18T05:04:08;5.23;;;1.90;;
6955;SDS011;50345;51.136;16.886;2023-02-18T05:06:34;1.10;;;1.00;;
6955;SDS011;50345;51.136;16.886;2023-02-18T05:09:00;2.53;;;1.00;;
6955;SDS011;50345;51.136;16.886;2023-02-18T05:11:25;3.83;;;1.60;;
6955;SDS011;50345;51.136;16.886;2023-02-18T05:13:51;1.73;;;1.13;;
6955;SDS011;50345;51.136;16.886;2023-02-18T05:16:16;2.30;;;1.00;;
6955;SDS011;50345;51.136;16.886;2023-02-18T05:18:42;1.13;;;1.03;;
6955;SDS011;50345;51.136;16.886;2023-02-18T05:21:07;1.63;;;1.00;;
6955;SDS011;50345;51.136;16.886;2023-02-18T05:23:33;1.87;;;1.30;;
6955;SDS011;50345;51.136;16.886;2023-02-18T05:25:58;2.97;;;1.20;;
6955;SDS011;50345;51.136;16.886;2023-02-18T05:28:24;3.00;;;1.13;;
6955;SDS011;50345;51.136;16.886;2023-02-18T05:30:49;1.27;;;0.97;;
6955;SDS011;50345;51.136;16.886;2023-02-18T05:33:15;1.93;;;1.00;;
6955;SDS011;50345;51.136;16.886;2023-02-18T05:35:41;2.10;;;0.90;;
6955;SDS011;50345;51.136;16.886;2023-02-18T05:38:06;2.70;;;1.20;;
6955;SDS011;50345;51.136;16.886;2023-02-18T05:40:32;4.03;;;1.30;;
6955;SDS011;50345;51.136;16.886;2023-02-18T05:42:57;1.63;;;0.93;;
6955;SDS011;50345;51.136;16.886;2023-02-18T05:45:23;2.30;;;1.30;;
6955;SDS011;50345;51.136;16.886;2023-02-18T05:47:49;2.70;;;1.27;;
6955;SDS011;50345;51.136;16.886;2023-02-18T05:50:14;2.60;;;1.10;;
6955;SDS011;50345;51.136;16.886;2023-02-18T05:52:40;5.30;;;1.10;;
6955;SDS011;50345;51.136;16.886;2023-02-18T05:55:05;2.03;;;0.80;;
6955;SDS011;50345;51.136;16.886;2023-02-18T05:57:31;1.00;;;0.90;;
6955;SDS011;50345;51.136;16.886;2023-02-18T05:59:57;1.07;;;0.90;;
6955;SDS011;50345;51.136;16.886;2023-02-18T06:02:22;1.00;;;0.90;;
6955;SDS011;50345;51.136;16.886;2023-02-18T06:04:48;3.60;;;1.53;;
6955;SDS011;50345;51.136;16.886;2023-02-18T06:07:13;4.47;;;3.10;;
6955;SDS011;50345;51.136;16.886;2023-02-18T06:09:39;1.30;;;0.97;;
6955;SDS011;50345;51.136;16.886;2023-02-18T06:12:05;2.20;;;1.00;;
6955;SDS011;50345;51.136;16.886;2023-02-18T06:14:30;3.77;;;1.33;;
6955;SDS011;50345;51.136;16.886;2023-02-18T06:16:56;3.03;;;1.40;;
6955;SDS011;50345;51.136;16.886;2023-02-18T06:19:22;4.47;;;1.60;;
6955;SDS011;50345;51.136;16.886;2023-02-18T06:21:47;1.67;;;1.00;;
6955;SDS011;50345;51.136;16.886;2023-02-18T06:24:13;1.87;;;0.90;;
6955;SDS011;50345;51.136;16.886;2023-02-18T06:26:38;2.53;;;1.10;;
6955;SDS011;50345;51.136;16.886;2023-02-18T06:29:04;2.33;;;1.37;;
6955;SDS011;50345;51.136;16.886;2023-02-18T06:31:29;2.00;;;1.40;;
6955;SDS011;50345;51.136;16.886;2023-02-18T06:33:55;2.13;;;1.53;;
6955;SDS011;50345;51.136;16.886;2023-02-18T06:36:21;1.10;;;1.00;;
6955;SDS011;50345;51.136;16.886;2023-02-18T06:38:46;2.77;;;1.43;;
6955;SDS011;50345;51.136;16.886;2023-02-18T06:41:12;2.63;;;1.30;;
6955;SDS011;50345;51.136;16.886;2023-02-18T06:43:39;3.88;;;2.50;;
6955;SDS011;50345;51.136;16.886;2023-02-18T06:46:04;2.27;;;1.33;;
6955;SDS011;50345;51.136;16.886;2023-02-18T06:48:30;2.65;;;2.10;;
6955;SDS011;50345;51.136;16.886;2023-02-18T06:50:56;2.37;;;1.20;;
6955;SDS011;50345;51.136;16.886;2023-02-18T06:53:22;2.60;;;1.10;;
6955;SDS011;50345;51.136;16.886;2023-02-18T06:55:48;1.33;;;1.20;;
6955;SDS011;50345;51.136;16.886;2023-02-18T06:58:14;2.63;;;1.10;;
6955;SDS011;50345;51.136;16.886;2023-02-18T07:00:40;1.70;;;1.00;;
6955;SDS011;50345;51.136;16.886;2023-02-18T07:03:06;3.00;;;1.48;;
6955;SDS011;50345;51.136;16.886;2023-02-18T07:05:32;1.38;;;1.08;;
6955;SDS011;50345;51.136;16.886;2023-02-18T07:07:58;2.50;;;0.90;;
6955;SDS011;50345;51.136;16.886;2023-02-18T07:10:24;2.30;;;1.20;;
6955;SDS011;50345;51.136;16.886;2023-02-18T07:12:49;2.67;;;1.00;;
6955;SDS011;50345;51.136;16.886;2023-02-18T07:15:15;1.30;;;1.20;;
6955;SDS011;50345;51.136;16.886;2023-02-18T07:17:41;2.60;;;1.27;;
6955;SDS011;50345;51.136;16.886;2023-02-18T07:20:06;2.17;;;1.00;;
6955;SDS011;50345;51.136;16.886;2023-02-18T07:22:33;2.50;;;1.05;;
6955;SDS011;50345;51.136;16.886;2023-02-18T07:24:58;5.13;;;1.07;;
6955;SDS011;50345;51.136;16.886;2023-02-18T07:27:24;1.40;;;1.10;;
6955;SDS011;50345;51.136;16.886;2023-02-18T07:29:50;1.60;;;1.13;;
6955;SDS011;50345;51.136;16.886;2023-02-18T07:32:16;1.33;;;0.90;;
6955;SDS011;50345;51.136;16.886;2023-02-18T07:34:42;1.65;;;1.17;;
6955;SDS011;50345;51.136;16.886;2023-02-18T07:37:08;1.10;;;1.00;;
6955;SDS011;50345;51.136;16.886;2023-02-18T07:39:40;2.13;;;1.43;;
6955;SDS011;50345;51.136;16.886;2023-02-18T07:42:07;4.03;;;1.65;;
6955;SDS011;50345;51.136;16.886;2023-02-18T07:44:34;5.70;;;1.85;;
6955;SDS011;50345;51.136;16.886;2023-02-18T07:47:00;1.92;;;1.00;;
6955;SDS011;50345;51.136;16.886;2023-02-18T07:49:26;1.60;;;1.10;;
6955;SDS011;50345;51.136;16.886;2023-02-18T07:51:52;2.13;;;1.30;;
6955;SDS011;50345;51.136;16.886;2023-02-18T07:54:17;2.60;;;1.10;;
6955;SDS011;50345;51.136;16.886;2023-02-18T07:56:43;4.50;;;2.50;;
6955;SDS011;50345;51.136;16.886;2023-02-18T07:59:10;4.30;;;1.97;;
6955;SDS011;50345;51.136;16.886;2023-02-18T08:01:36;2.83;;;1.40;;
6955;SDS011;50345;51.136;16.886;2023-02-18T08:04:01;4.70;;;1.87;;
6955;SDS011;50345;51.136;16.886;2023-02-18T08:06:32;2.10;;;1.40;;
6955;SDS011;50345;51.136;16.886;2023-02-18T08:08:59;2.80;;;1.50;;
6955;SDS011;50345;51.136;16.886;2023-02-18T08:11:25;4.30;;;1.47;;
6955;SDS011;50345;51.136;16.886;2023-02-18T08:13:51;2.77;;;1.60;;
6955;SDS011;50345;51.136;16.886;2023-02-18T08:16:17;4.10;;;1.50;;
6955;SDS011;50345;51.136;16.886;2023-02-18T08:18:44;3.03;;;0.93;;
6955;SDS011;50345;51.136;16.886;2023-02-18T08:21:12;1.95;;;1.10;;
6955;SDS011;50345;51.136;16.886;2023-02-18T08:23:37;1.97;;;1.40;;
6955;SDS011;50345;51.136;16.886;2023-02-18T08:26:03;2.20;;;1.27;;
6955;SDS011;50345;51.136;16.886;2023-02-18T08:28:29;3.43;;;1.73;;
6955;SDS011;50345;51.136;16.886;2023-02-18T08:30:54;3.93;;;1.67;;
6955;SDS011;50345;51.136;16.886;2023-02-18T08:33:20;4.13;;;1.20;;
6955;SDS011;50345;51.136;16.886;2023-02-18T08:35:46;1.20;;;1.10;;
6955;SDS011;50345;51.136;16.886;2023-02-18T08:38:14;2.25;;;1.40;;
6955;SDS011;50345;51.136;16.886;2023-02-18T08:40:40;3.87;;;1.30;;
6955;SDS011;50345;51.136;16.886;2023-02-18T08:43:06;4.35;;;1.65;;
6955;SDS011;50345;51.136;16.886;2023-02-18T08:45:32;1.70;;;1.37;;
6955;SDS011;50345;51.136;16.886;2023-02-18T08:47:57;2.70;;;1.60;;
6955;SDS011;50345;51.136;16.886;2023-02-18T08:50:23;2.00;;;1.27;;
6955;SDS011;50345;51.136;16.886;2023-02-18T08:52:53;2.80;;;1.60;;
6955;SDS011;50345;51.136;16.886;2023-02-18T08:55:20;1.70;;;0.95;;
6955;SDS011;50345;51.136;16.886;2023-02-18T08:57:46;1.47;;;0.90;;
6955;SDS011;50345;51.136;16.886;2023-02-18T09:00:13;2.22;;;1.15;;
6955;SDS011;50345;51.136;16.886;2023-02-18T09:02:40;2.65;;;1.70;;
6955;SDS011;50345;51.136;16.886;2023-02-18T09:05:06;4.60;;;1.33;;
6955;SDS011;50345;51.136;16.886;2023-02-18T09:07:33;4.95;;;1.65;;
6955;SDS011;50345;51.136;16.886;2023-02-18T09:09:59;2.53;;;1.15;;
6955;SDS011;50345;51.136;16.886;2023-02-18T09:12:25;1.90;;;1.00;;
6955;SDS011;50345;51.136;16.886;2023-02-18T09:14:50;1.60;;;1.30;;
6955;SDS011;50345;51.136;16.886;2023-02-18T09:17:16;3.33;;;1.57;;
6955;SDS011;50345;51.136;16.886;2023-02-18T09:19:41;1.47;;;0.90;;
6955;SDS011;50345;51.136;16.886;2023-02-18T09:22:07;4.67;;;1.23;;
6955;SDS011;50345;51.136;16.886;2023-02-18T09:24:36;0.97;;;0.87;;
6955;SDS011;50345;51.136;16.886;2023-02-18T09:27:03;1.38;;;1.00;;
6955;SDS011;50345;51.136;16.886;2023-02-18T09:29:28;1.17;;;1.10;;
6955;SDS011;50345;51.136;16.886;2023-02-18T09:31:54;1.30;;;1.10;;
6955;SDS011;50345;51.136;16.886;2023-02-18T09:34:20;1.47;;;0.97;;
6955;SDS011;50345;51.136;16.886;2023-02-18T09:36:45;5.60;;;2.13;;
6955;SDS011;50345;51.136;16.886;2023-02-18T09:39:11;2.13;;;1.52;;
6955;SDS011;50345;51.136;16.886;2023-02-18T09:44:42;3.92;;;1.27;;
6955;SDS011;50345;51.136;16.886;2023-02-18T09:47:30;3.35;;;1.30;;
6955;SDS011;50345;51.136;16.886;2023-02-18T09:49:58;3.10;;;1.20;;
6955;SDS011;50345;51.136;16.886;2023-02-18T09:52:31;2.78;;;2.00;;
6955;SDS011;50345;51.136;16.886;2023-02-18T09:54:58;3.00;;;1.83;;
6955;SDS011;50345;51.136;16.886;2023-02-18T09:57:43;1.23;;;1.10;;
6955;SDS011;50345;51.136;16.886;2023-02-18T10:02:57;4.57;;;1.40;;
6955;SDS011;50345;51.136;16.886;2023-02-18T10:05:26;1.50;;;1.15;;
6955;SDS011;50345;51.136;16.886;2023-02-18T10:07:56;2.30;;;1.35;;
6955;SDS011;50345;51.136;16.886;2023-02-18T10:10:36;2.53;;;1.20;;
6955;SDS011;50345;51.136;16.886;2023-02-18T10:13:06;3.17;;;1.30;;
6955;SDS011;50345;51.136;16.886;2023-02-18T10:15:46;3.13;;;1.23;;
6955;SDS011;50345;51.136;16.886;2023-02-18T10:18:18;2.70;;;1.30;;
6955;SDS011;50345;51.136;16.886;2023-02-18T10:20:50;6.57;;;2.58;;
6955;SDS011;50345;51.136;16.886;2023-02-18T10:23:19;3.53;;;1.60;;
6955;SDS011;50345;51.136;16.886;2023-02-18T10:25:45;1.95;;;1.80;;
6955;SDS011;50345;51.136;16.886;2023-02-18T10:28:13;3.55;;;2.20;;
6955;SDS011;50345;51.136;16.886;2023-02-18T10:30:54;5.90;;;3.42;;
6955;SDS011;50345;51.136;16.886;2023-02-18T10:33:32;3.13;;;1.90;;
6955;SDS011;50345;51.136;16.886;2023-02-18T10:36:11;6.50;;;2.00;;
6955;SDS011;50345;51.136;16.886;2023-02-18T10:41:44;4.40;;;2.05;;
6955;SDS011;50345;51.136;16.886;2023-02-18T10:50:00;3.05;;;1.83;;
6955;SDS011;50345;51.136;16.886;2023-02-18T10:52:38;4.57;;;2.70;;
6955;SDS011;50345;51.136;16.886;2023-02-18T10:55:11;5.85;;;2.20;;
6955;SDS011;50345;51.136;16.886;2023-02-18T10:57:50;2.95;;;1.92;;
6955;SDS011;50345;51.136;16.886;2023-02-18T11:00:22;5.47;;;3.05;;
6955;SDS011;50345;51.136;16.886;2023-02-18T11:03:01;5.20;;;2.40;;
6955;SDS011;50345;51.136;16.886;2023-02-18T11:05:41;8.70;;;4.18;;
6955;SDS011;50345;51.136;16.886;2023-02-18T11:08:09;3.95;;;2.17;;
6955;SDS011;50345;51.136;16.886;2023-02-18T11:10:39;3.65;;;2.05;;
6955;SDS011;50345;51.136;16.886;2023-02-18T11:13:08;5.10;;;2.92;;
6955;SDS011;50345;51.136;16.886;2023-02-18T11:15:36;7.32;;;3.13;;
6955;SDS011;50345;51.136;16.886;2023-02-18T11:20:56;4.40;;;2.00;;
6955;SDS011;50345;51.136;16.886;2023-02-18T11:23:23;5.30;;;4.80;;
6955;SDS011;50345;51.136;16.886;2023-02-18T11:30:58;3.92;;;2.95;;
6955;SDS011;50345;51.136;16.886;2023-02-18T11:33:30;4.90;;;2.80;;
6955;SDS011;50345;51.136;16.886;2023-02-18T11:36:02;5.78;;;4.45;;
6955;SDS011;50345;51.136;16.886;2023-02-18T11:38:43;6.25;;;3.58;;
6955;SDS011;50345;51.136;16.886;2023-02-18T11:41:17;8.15;;;2.90;;
6955;SDS011;50345;51.136;16.886;2023-02-18T11:43:49;10.75;;;6.28;;
6955;SDS011;50345;51.136;16.886;2023-02-18T11:46:21;7.35;;;3.95;;
6955;SDS011;50345;51.136;16.886;2023-02-18T11:48:48;5.25;;;4.20;;
6955;SDS011;50345;51.136;16.886;2023-02-18T11:51:25;6.90;;;3.60;;
6955;SDS011;50345;51.136;16.886;2023-02-18T11:53:54;5.22;;;3.42;;
6955;SDS011;50345;51.136;16.886;2023-02-18T11:56:23;5.35;;;3.15;;
6955;SDS011;50345;51.136;16.886;2023-02-18T11:58:50;4.57;;;3.40;;
6955;SDS011;50345;51.136;16.886;2023-02-18T12:04:07;7.00;;;4.32;;
6955;SDS011;50345;51.136;16.886;2023-02-18T12:06:56;6.80;;;4.13;;
6955;SDS011;50345;51.136;16.886;2023-02-18T12:09:29;8.48;;;4.00;;
6955;SDS011;50345;51.136;16.886;2023-02-18T12:12:05;7.72;;;4.40;;
6955;SDS011;50345;51.136;16.886;2023-02-18T12:14:53;18.65;;;12.00;;
6955;SDS011;50345;51.136;16.886;2023-02-18T12:17:36;16.70;;;9.45;;
6955;SDS011;50345;51.136;16.886;2023-02-18T12:26:17;6.97;;;4.45;;
6955;SDS011;50345;51.136;16.886;2023-02-18T12:29:12;7.75;;;4.25;;
6955;SDS011;50345;51.136;16.886;2023-02-18T12:32:03;9.90;;;4.20;;
6955;SDS011;50345;51.136;16.886;2023-02-18T12:34:54;10.75;;;4.78;;
6955;SDS011;50345;51.136;16.886;2023-02-18T12:37:37;6.63;;;5.78;;
6955;SDS011;50345;51.136;16.886;2023-02-18T12:45:53;8.18;;;5.03;;
6955;SDS011;50345;51.136;16.886;2023-02-18T12:51:10;5.07;;;4.18;;
6955;SDS011;50345;51.136;16.886;2023-02-18T13:00:01;17.13;;;10.15;;
6955;SDS011;50345;51.136;16.886;2023-02-18T13:02:59;18.55;;;9.80;;
6955;SDS011;50345;51.136;16.886;2023-02-18T13:06:02;17.63;;;8.63;;
6955;SDS011;50345;51.136;16.886;2023-02-18T13:08:55;13.10;;;7.72;;
6955;SDS011;50345;51.136;16.886;2023-02-18T13:14:20;8.70;;;7.00;;
6955;SDS011;50345;51.136;16.886;2023-02-18T13:16:51;10.40;;;6.55;;
6955;SDS011;50345;51.136;16.886;2023-02-18T13:19:21;15.50;;;11.90;;
6955;SDS011;50345;51.136;16.886;2023-02-18T13:21:52;9.25;;;6.35;;
6955;SDS011;50345;51.136;16.886;2023-02-18T13:26:57;7.88;;;7.07;;
6955;SDS011;50345;51.136;16.886;2023-02-18T13:29:37;10.68;;;6.28;;
6955;SDS011;50345;51.136;16.886;2023-02-18T13:32:34;9.32;;;6.40;;
6955;SDS011;50345;51.136;16.886;2023-02-18T13:40:22;9.52;;;7.20;;
6955;SDS011;50345;51.136;16.886;2023-02-18T13:42:53;8.15;;;6.63;;
6955;SDS011;50345;51.136;16.886;2023-02-18T13:45:39;11.20;;;7.03;;
6955;SDS011;50345;51.136;16.886;2023-02-18T13:48:10;9.57;;;6.67;;
6955;SDS011;50345;51.136;16.886;2023-02-18T13:50:47;8.60;;;6.18;;
6955;SDS011;50345;51.136;16.886;2023-02-18T13:53:14;7.43;;;6.80;;
6955;SDS011;50345;51.136;16.886;2023-02-18T14:01:42;8.50;;;5.85;;
6955;SDS011;50345;51.136;16.886;2023-02-18T14:17:46;11.83;;;6.77;;
6955;SDS011;50345;51.136;16.886;2023-02-18T14:28:42;11.90;;;8.18;;
6955;SDS011;50345;51.136;16.886;2023-02-18T14:34:01;12.80;;;8.00;;
6955;SDS011;50345;51.136;16.886;2023-02-18T14:37:04;11.23;;;8.15;;
6955;SDS011;50345;51.136;16.886;2023-02-18T14:40:13;8.95;;;7.10;;
6955;SDS011;50345;51.136;16.886;2023-02-18T14:43:00;15.07;;;10.82;;
6955;SDS011;50345;51.136;16.886;2023-02-18T14:49:12;12.10;;;8.93;;
6955;SDS011;50345;51.136;16.886;2023-02-18T14:51:28;14.05;;;11.55;;
6955;SDS011;50345;51.136;16.886;2023-02-18T14:53:55;13.95;;;10.35;;
6955;SDS011;50345;51.136;16.886;2023-02-18T14:56:26;16.20;;;11.77;;
6955;SDS011;50345;51.136;16.886;2023-02-18T14:58:54;13.03;;;9.37;;
6955;SDS011;50345;51.136;16.886;2023-02-18T15:01:26;13.82;;;9.05;;
6955;SDS011;50345;51.136;16.886;2023-02-18T15:03:55;14.90;;;10.07;;
6955;SDS011;50345;51.136;16.886;2023-02-18T15:08:58;12.32;;;7.88;;
6955;SDS011;50345;51.136;16.886;2023-02-18T15:11:46;5.20;;;4.80;;
6955;SDS011;50345;51.136;16.886;2023-02-18T15:14:15;3.75;;;2.38;;
6955;SDS011;50345;51.136;16.886;2023-02-18T15:16:45;2.20;;;2.00;;
6955;SDS011;50345;51.136;16.886;2023-02-18T15:19:20;2.08;;;1.90;;
6955;SDS011;50345;51.136;16.886;2023-02-18T15:21:50;8.32;;;2.63;;
6955;SDS011;50345;51.136;16.886;2023-02-18T15:24:34;3.67;;;1.73;;
6955;SDS011;50345;51.136;16.886;2023-02-18T15:27:02;1.70;;;1.60;;
6955;SDS011;50345;51.136;16.886;2023-02-18T15:29:35;2.83;;;1.75;;
6955;SDS011;50345;51.136;16.886;2023-02-18T15:32:09;1.90;;;1.80;;
6955;SDS011;50345;51.136;16.886;2023-02-18T15:34:44;1.65;;;1.55;;
6955;SDS011;50345;51.136;16.886;2023-02-18T15:37:12;2.47;;;2.28;;
6955;SDS011;50345;51.136;16.886;2023-02-18T15:39:39;3.45;;;2.50;;
6955;SDS011;50345;51.136;16.886;2023-02-18T15:42:28;2.95;;;2.70;;
6955;SDS011;50345;51.136;16.886;2023-02-18T15:44:57;2.92;;;2.53;;
6955;SDS011;50345;51.136;16.886;2023-02-18T15:47:28;2.50;;;2.20;;
6955;SDS011;50345;51.136;16.886;2023-02-18T15:49:56;1.80;;;1.70;;
6955;SDS011;50345;51.136;16.886;2023-02-18T15:52:24;3.10;;;2.45;;
6955;SDS011;50345;51.136;16.886;2023-02-18T15:54:52;2.03;;;1.88;;
6955;SDS011;50345;51.136;16.886;2023-02-18T15:57:18;2.55;;;2.35;;
6955;SDS011;50345;51.136;16.886;2023-02-18T15:59:54;3.17;;;1.80;;
6955;SDS011;50345;51.136;16.886;2023-02-18T16:02:37;2.38;;;2.17;;
6955;SDS011;50345;51.136;16.886;2023-02-18T16:05:24;3.17;;;2.15;;
6955;SDS011;50345;51.136;16.886;2023-02-18T16:07:55;1.88;;;1.65;;
6955;SDS011;50345;51.136;16.886;2023-02-18T16:10:24;2.38;;;2.22;;
6955;SDS011;50345;51.136;16.886;2023-02-18T16:13:03;1.77;;;1.67;;
6955;SDS011;50345;51.136;16.886;2023-02-18T16:15:39;3.25;;;1.80;;
6955;SDS011;50345;51.136;16.886;2023-02-18T16:18:18;1.77;;;1.67;;
6955;SDS011;50345;51.136;16.886;2023-02-18T16:21:04;3.65;;;2.67;;
6955;SDS011;50345;51.136;16.886;2023-02-18T16:23:56;1.55;;;1.45;;
6955;SDS011;50345;51.136;16.886;2023-02-18T16:29:10;3.40;;;2.30;;
6955;SDS011;50345;51.136;16.886;2023-02-18T16:31:38;1.98;;;1.80;;
6955;SDS011;50345;51.136;16.886;2023-02-18T16:34:04;1.75;;;1.65;;
6955;SDS011;50345;51.136;16.886;2023-02-18T16:36:30;2.23;;;2.03;;
6955;SDS011;50345;51.136;16.886;2023-02-18T16:38:56;2.45;;;1.60;;
6955;SDS011;50345;51.136;16.886;2023-02-18T16:41:22;2.38;;;1.83;;
6955;SDS011;50345;51.136;16.886;2023-02-18T16:43:48;3.70;;;3.40;;
6955;SDS011;50345;51.136;16.886;2023-02-18T16:46:15;1.43;;;1.20;;
6955;SDS011;50345;51.136;16.886;2023-02-18T16:48:44;5.03;;;4.63;;
6955;SDS011;50345;51.136;16.886;2023-02-18T16:51:16;3.15;;;2.20;;
6955;SDS011;50345;51.136;16.886;2023-02-18T16:53:46;2.20;;;2.05;;
6955;SDS011;50345;51.136;16.886;2023-02-18T16:56:12;2.50;;;2.30;;
6955;SDS011;50345;51.136;16.886;2023-02-18T16:58:40;3.30;;;3.00;;
6955;SDS011;50345;51.136;16.886;2023-02-18T17:01:05;1.90;;;1.77;;
6955;SDS011;50345;51.136;16.886;2023-02-18T17:03:35;3.15;;;1.42;;